createdAt,value
2018-06-22T00:01:30.842Z,70.10
2018-06-22T00:04:01.289Z,70.60
2018-06-22T00:06:31.792Z,70.80
2018-06-22T00:09:02.164Z,70.80
2018-06-22T00:11:32.539Z,71.30
2018-06-22T00:14:02.946Z,71.60
2018-06-22T00:16:33.261Z,71.90
2018-06-22T00:19:03.927Z,72.50
2018-06-22T00:21:34.304Z,72.60
2018-06-22T00:24:04.720Z,72.70
2018-06-22T00:26:35.206Z,72.80
2018-06-22T00:29:05.601Z,73.10
2018-06-22T00:31:36.613Z,73.30
2018-06-22T00:34:07.035Z,73.70
2018-06-22T00:36:37.506Z,73.90
2018-06-22T00:39:09.787Z,74.00
2018-06-22T00:41:40.232Z,74.40
2018-06-22T00:44:11.354Z,74.40
2018-06-22T00:49:11.848Z,74.10
2018-06-22T00:51:42.259Z,74.10
2018-06-22T00:54:16.249Z,74.60
2018-06-22T00:56:47.690Z,74.70
2018-06-22T01:01:48.148Z,75.20
2018-06-22T01:04:18.510Z,75.50
2018-06-22T01:06:48.975Z,76.20
2018-06-22T01:09:19.330Z,76.10
2018-06-22T01:11:50.765Z,76.20
2018-06-22T01:14:21.117Z,76.50
2018-06-22T01:16:51.495Z,76.40
2018-06-22T01:19:21.944Z,76.20
2018-06-22T01:21:52.346Z,76.00
2018-06-22T01:24:22.773Z,75.80
2018-06-22T01:26:53.111Z,76.20
2018-06-22T01:29:30.157Z,76.10
2018-06-22T01:32:01.759Z,76.30
2018-06-22T01:34:32.237Z,76.30
2018-06-22T01:37:03.374Z,76.20
2018-06-22T01:39:34.397Z,76.40
2018-06-22T01:42:04.830Z,76.70
2018-06-22T01:44:35.365Z,76.60
2018-06-22T01:47:06.409Z,76.70
2018-06-22T01:49:36.877Z,77.00
2018-06-22T01:52:07.262Z,77.30
2018-06-22T01:54:37.767Z,77.10
2018-06-22T01:57:08.188Z,77.20
2018-06-22T01:59:38.648Z,77.50
2018-06-22T02:02:10.186Z,77.60
2018-06-22T02:04:40.714Z,77.60
2018-06-22T02:07:11.794Z,77.40
2018-06-22T02:09:42.271Z,77.90
2018-06-22T02:12:12.640Z,78.10
2018-06-22T02:14:44.436Z,78.20
2018-06-22T02:17:14.862Z,78.20
2018-06-22T02:19:45.202Z,78.20
2018-06-22T02:24:45.677Z,78.60
2018-06-22T02:27:16.133Z,78.50
2018-06-22T02:29:46.565Z,78.30
2018-06-22T02:32:17.101Z,78.70
2018-06-22T02:34:47.556Z,78.80
2018-06-22T02:37:18.030Z,79.50
2018-06-22T02:39:48.380Z,79.20
2018-06-22T02:42:18.894Z,79.40
2018-06-22T02:44:49.335Z,79.20
2018-06-22T02:47:19.757Z,79.60
2018-06-22T02:49:50.131Z,79.70
2018-06-22T02:52:20.629Z,80.00
2018-06-22T02:54:51.032Z,80.00
2018-06-22T02:57:22.493Z,80.00
2018-06-22T02:59:52.982Z,80.30
2018-06-22T03:02:23.383Z,81.10
2018-06-22T03:04:54.040Z,81.10
2018-06-22T03:07:24.521Z,81.80
2018-06-22T03:09:55.195Z,81.70
2018-06-22T03:12:26.141Z,81.70
2018-06-22T03:14:56.640Z,81.90
2018-06-22T03:19:57.195Z,82.50
2018-06-22T03:24:58.566Z,82.90
2018-06-22T03:27:29.036Z,83.40
2018-06-22T03:29:59.403Z,83.70
2018-06-22T03:32:29.854Z,83.70
2018-06-22T03:35:00.369Z,84.10
2018-06-22T03:37:31.735Z,84.40
2018-06-22T03:40:02.157Z,84.40
2018-06-22T03:42:32.637Z,84.50
2018-06-22T03:45:03.247Z,84.40
2018-06-22T03:47:33.560Z,85.00
2018-06-22T03:50:04.169Z,85.00
2018-06-22T03:52:34.623Z,85.20
2018-06-22T03:55:05.163Z,85.10
2018-06-22T03:57:35.638Z,85.10
2018-06-22T04:02:36.104Z,85.10
2018-06-22T04:05:06.565Z,85.40
2018-06-22T04:07:37.098Z,85.50
2018-06-22T04:10:07.704Z,85.50
2018-06-22T04:12:38.200Z,85.50
2018-06-22T04:15:08.701Z,86.00
2018-06-22T04:17:49.658Z,85.50
2018-06-22T04:20:21.665Z,84.80
2018-06-22T04:22:52.879Z,85.10
2018-06-22T04:25:24.975Z,85.50
2018-06-22T04:27:55.507Z,86.00
2018-06-22T04:30:26.104Z,85.50
2018-06-22T04:32:56.730Z,86.30
2018-06-22T04:35:27.221Z,86.10
2018-06-22T04:37:57.719Z,86.00
2018-06-22T04:40:28.282Z,86.00
2018-06-22T04:42:58.693Z,87.10
2018-06-22T04:45:29.152Z,86.90
2018-06-22T04:47:59.678Z,86.50
2018-06-22T04:50:30.159Z,86.70
2018-06-22T04:53:00.610Z,86.70
2018-06-22T04:55:31.188Z,86.50
2018-06-22T04:58:01.689Z,84.30
2018-06-22T05:00:32.158Z,83.50
2018-06-22T05:03:02.567Z,81.40
2018-06-22T05:05:33.123Z,80.90
2018-06-22T05:08:03.757Z,78.60
2018-06-22T05:10:34.207Z,78.60
2018-06-22T05:13:04.855Z,76.80
2018-06-22T05:15:35.316Z,75.90
2018-06-22T05:18:06.852Z,75.60
2018-06-22T05:20:37.357Z,74.50
2018-06-22T05:23:08.471Z,73.40
2018-06-22T05:25:38.920Z,73.40
2018-06-22T05:28:09.285Z,73.50
2018-06-22T05:30:40.359Z,72.50
2018-06-22T05:33:10.765Z,71.00
2018-06-22T05:35:41.220Z,70.70
2018-06-22T05:38:11.746Z,70.40
2018-06-22T05:40:42.245Z,68.70
2018-06-22T05:43:12.629Z,69.60
2018-06-22T05:45:43.142Z,69.80
2018-06-22T05:48:13.603Z,68.90
2018-06-22T05:50:44.103Z,68.40
2018-06-22T05:53:14.540Z,68.20
2018-06-22T05:55:45.035Z,67.90
2018-06-22T05:58:16.344Z,68.00
2018-06-22T06:00:46.851Z,67.60
2018-06-22T06:03:17.213Z,67.20
2018-06-22T06:05:47.645Z,67.20
2018-06-22T06:08:18.077Z,66.70
2018-06-22T06:10:48.580Z,65.50
2018-06-22T06:13:19.071Z,65.60
2018-06-22T06:15:49.573Z,67.50
2018-06-22T06:18:20.036Z,66.70
2018-06-22T06:20:50.525Z,66.80
2018-06-22T06:23:21.077Z,67.20
2018-06-22T06:25:51.664Z,64.70
2018-06-22T06:28:22.159Z,65.50
2018-06-22T06:30:53.743Z,65.20
2018-06-22T06:33:24.245Z,65.10
2018-06-22T06:35:55.458Z,65.40
2018-06-22T06:38:26.820Z,64.90
2018-06-22T06:40:57.345Z,64.30
2018-06-22T06:43:27.879Z,62.90
2018-06-22T06:45:58.288Z,65.60
2018-06-22T06:48:28.836Z,63.70
2018-06-22T06:50:59.250Z,62.90
2018-06-22T06:53:29.694Z,62.60
2018-06-22T06:56:00.517Z,64.00
2018-06-22T06:58:30.991Z,62.50
2018-06-22T07:01:01.397Z,61.20
2018-06-22T07:03:31.862Z,63.20
2018-06-22T07:06:02.289Z,61.80
2018-06-22T07:08:32.833Z,62.40
2018-06-22T07:11:03.259Z,63.30
2018-06-22T07:13:33.644Z,62.50
2018-06-22T07:16:04.088Z,61.50
2018-06-22T07:18:34.519Z,61.90
2018-06-22T07:21:04.948Z,61.70
2018-06-22T07:23:36.268Z,61.70
2018-06-22T07:26:06.685Z,62.50
2018-06-22T07:28:37.134Z,63.10
2018-06-22T07:31:07.633Z,62.40
2018-06-22T07:33:38.081Z,61.30
2018-06-22T07:36:08.605Z,62.50
2018-06-22T07:38:39.056Z,61.80
2018-06-22T07:41:09.448Z,63.40
2018-06-22T07:43:39.887Z,63.30
2018-06-22T07:46:10.217Z,63.40
2018-06-22T07:48:40.724Z,63.70
2018-06-22T07:51:11.145Z,63.30
2018-06-22T07:53:41.623Z,62.40
2018-06-22T07:56:12.075Z,62.40
2018-06-22T07:58:42.457Z,63.90
2018-06-22T08:01:12.977Z,65.50
2018-06-22T08:03:43.485Z,60.30
2018-06-22T08:06:14.003Z,63.00
2018-06-22T08:08:44.313Z,64.00
2018-06-22T08:11:14.810Z,63.40
2018-06-22T08:13:45.309Z,63.10
2018-06-22T08:16:15.745Z,63.00
2018-06-22T08:18:46.615Z,64.20
2018-06-22T08:21:17.091Z,63.70
2018-06-22T08:23:47.557Z,63.70
2018-06-22T08:26:18.964Z,63.20
2018-06-22T08:28:49.684Z,61.90
2018-06-22T08:31:20.189Z,61.90
2018-06-22T08:33:50.689Z,63.30
2018-06-22T08:36:21.121Z,61.30
2018-06-22T08:38:51.571Z,60.40
2018-06-22T08:41:22.013Z,61.00
2018-06-22T08:43:52.491Z,60.40
2018-06-22T08:46:22.958Z,62.50
2018-06-22T08:48:53.570Z,61.70
2018-06-22T08:51:23.977Z,61.10
2018-06-22T08:53:54.493Z,62.00
2018-06-22T08:56:25.038Z,61.20
2018-06-22T08:58:55.565Z,63.40
2018-06-22T09:01:26.888Z,62.30
2018-06-22T09:03:57.387Z,61.80
2018-06-22T09:06:27.832Z,61.80
2018-06-22T09:08:58.809Z,62.10
2018-06-22T09:11:29.522Z,62.90
2018-06-22T09:13:59.955Z,61.50
2018-06-22T09:16:30.413Z,62.10
2018-06-22T09:19:00.832Z,63.20
2018-06-22T09:21:31.266Z,63.60
2018-06-22T09:24:01.628Z,62.80
2018-06-22T09:26:32.105Z,62.40
2018-06-22T09:29:02.519Z,62.40
2018-06-22T09:31:32.946Z,63.60
2018-06-22T09:34:03.370Z,64.20
2018-06-22T09:36:33.745Z,63.90
2018-06-22T09:39:04.771Z,64.00
2018-06-22T09:41:35.220Z,63.10
2018-06-22T09:44:05.808Z,63.10
2018-06-22T09:46:36.339Z,63.30
2018-06-22T09:49:06.758Z,63.60
2018-06-22T09:51:37.101Z,62.90
2018-06-22T09:54:08.035Z,62.30
2018-06-22T09:56:38.493Z,61.90
2018-06-22T09:59:08.976Z,62.10
2018-06-22T10:01:39.930Z,62.70
2018-06-22T10:04:10.404Z,62.90
2018-06-22T10:06:41.261Z,63.50
2018-06-22T10:09:13.466Z,63.30
2018-06-22T10:11:43.967Z,63.60
2018-06-22T10:14:14.428Z,64.00
2018-06-22T10:16:44.929Z,63.50
2018-06-22T10:21:45.478Z,63.50
2018-06-22T10:26:45.920Z,62.80
2018-06-22T10:29:16.404Z,63.70
2018-06-22T10:31:46.894Z,63.90
2018-06-22T10:34:17.364Z,63.70
2018-06-22T10:36:47.812Z,63.50
2018-06-22T10:39:18.493Z,62.70
2018-06-22T10:41:48.894Z,62.00
2018-06-22T10:44:19.379Z,64.10
2018-06-22T10:46:49.872Z,62.70
2018-06-22T10:49:21.210Z,63.10
2018-06-22T10:51:51.669Z,62.70
2018-06-22T10:54:22.117Z,63.40
2018-06-22T10:56:52.649Z,62.60
2018-06-22T10:59:23.209Z,63.20
2018-06-22T11:01:54.065Z,61.60
2018-06-22T11:04:24.529Z,61.70
2018-06-22T11:06:55.131Z,63.50
2018-06-22T11:09:26.228Z,62.70
2018-06-22T11:11:57.203Z,63.00
2018-06-22T11:14:27.683Z,64.80
2018-06-22T11:16:58.209Z,62.80
2018-06-22T11:19:29.304Z,62.10
2018-06-22T11:21:59.757Z,62.20
2018-06-22T11:24:30.316Z,62.50
2018-06-22T11:27:00.691Z,62.40
2018-06-22T11:32:01.752Z,62.50
2018-06-22T11:34:32.907Z,63.70
2018-06-22T11:37:03.628Z,64.50
2018-06-22T11:39:34.152Z,64.80
2018-06-22T11:42:04.833Z,64.10
2018-06-22T11:44:35.288Z,63.50
2018-06-22T11:47:05.785Z,63.90
2018-06-22T11:49:36.255Z,62.50
2018-06-22T11:52:06.964Z,63.80
2018-06-22T11:54:37.489Z,63.00
2018-06-22T11:57:08.388Z,63.00
2018-06-22T11:59:39.924Z,63.50
2018-06-22T12:02:10.529Z,63.20
2018-06-22T12:04:41.074Z,63.50
2018-06-22T12:07:12.457Z,63.60
2018-06-22T12:09:42.827Z,62.70
2018-06-22T12:12:13.209Z,62.50
2018-06-22T12:14:43.595Z,63.40
2018-06-22T12:19:44.388Z,63.50
2018-06-22T12:22:15.013Z,64.10
2018-06-22T12:24:45.545Z,63.70
2018-06-22T12:27:15.922Z,63.90
2018-06-22T12:29:46.365Z,64.10
2018-06-22T12:34:48.697Z,65.00
2018-06-22T12:37:19.144Z,64.30
2018-06-22T12:39:49.589Z,64.90
2018-06-22T12:42:20.006Z,64.40
2018-06-22T12:44:50.441Z,65.00
2018-06-22T12:47:22.023Z,64.20
2018-06-22T12:49:52.465Z,64.20
2018-06-22T12:52:22.942Z,64.80
2018-06-22T12:54:53.936Z,64.90
2018-06-22T12:57:24.459Z,64.50
2018-06-22T12:59:54.941Z,65.10
2018-06-22T13:02:25.450Z,65.60
2018-06-22T13:04:55.810Z,66.00
2018-06-22T13:07:26.275Z,66.10
2018-06-22T13:09:56.772Z,65.70
2018-06-22T13:12:27.183Z,65.80
2018-06-22T13:14:57.716Z,66.00
2018-06-22T13:17:28.072Z,65.30
2018-06-22T13:19:58.677Z,66.80
2018-06-22T13:22:29.434Z,66.70
2018-06-22T13:24:59.812Z,66.20
2018-06-22T13:27:30.370Z,66.60
2018-06-22T13:30:01.781Z,65.20
2018-06-22T13:32:32.196Z,65.60
2018-06-22T13:35:02.762Z,65.40
2018-06-22T13:37:33.213Z,65.60
2018-06-22T13:40:03.734Z,64.90
2018-06-22T13:42:34.143Z,65.00
2018-06-22T13:45:04.660Z,64.70
2018-06-22T13:47:35.158Z,64.70
2018-06-22T13:50:05.729Z,64.30
2018-06-22T13:52:36.080Z,65.00
2018-06-22T13:55:06.649Z,65.80
2018-06-22T13:57:37.171Z,66.00
2018-06-22T14:00:07.691Z,65.30
2018-06-22T14:02:38.338Z,65.70
2018-06-22T14:05:13.910Z,66.40
2018-06-22T14:07:44.363Z,66.20
2018-06-22T14:10:14.745Z,64.80
2018-06-22T14:12:45.245Z,64.60
2018-06-22T14:17:45.698Z,65.00
2018-06-22T14:20:16.266Z,64.40
2018-06-22T14:22:46.867Z,63.90
2018-06-22T14:25:17.352Z,60.10
2018-06-22T14:27:47.820Z,61.00
2018-06-22T14:30:18.985Z,61.80
2018-06-22T14:32:49.642Z,62.40
2018-06-22T14:35:20.467Z,63.10
2018-06-22T14:37:51.028Z,64.30
2018-06-22T14:40:21.456Z,64.90
2018-06-22T14:42:52.691Z,65.00
2018-06-22T14:45:23.179Z,63.70
2018-06-22T14:47:53.742Z,63.70
2018-06-22T14:50:24.194Z,64.10
2018-06-22T14:52:54.703Z,63.40
2018-06-22T14:55:30.429Z,63.70
2018-06-22T14:58:06.031Z,64.20
2018-06-22T15:00:41.606Z,62.60
2018-06-22T15:03:17.270Z,63.60
2018-06-22T15:05:52.893Z,63.10
2018-06-22T15:08:24.292Z,63.70
2018-06-22T15:10:55.221Z,64.10
2018-06-22T15:13:25.670Z,63.00
2018-06-22T15:16:00.089Z,60.80
2018-06-22T15:18:30.516Z,61.70
2018-06-22T15:21:01.017Z,61.70
2018-06-22T15:23:31.500Z,61.50
2018-06-22T15:26:02.047Z,61.40
2018-06-22T15:28:32.501Z,60.30
2018-06-22T15:31:02.962Z,59.80
2018-06-22T15:33:38.541Z,59.50
2018-06-22T15:36:14.331Z,59.50
2018-06-22T15:38:50.121Z,59.80
2018-06-22T15:41:25.689Z,60.10
2018-06-22T15:46:36.702Z,61.50
2018-06-22T15:49:12.248Z,62.80
2018-06-22T15:51:47.729Z,63.10
2018-06-22T15:54:23.326Z,62.70
2018-06-22T15:56:53.803Z,63.40
2018-06-22T15:59:24.263Z,62.20
2018-06-22T16:01:59.151Z,63.20
2018-06-22T16:04:29.629Z,63.90
2018-06-22T16:07:00.085Z,63.10
2018-06-22T16:09:30.751Z,63.70
2018-06-22T16:12:33.734Z,63.60
2018-06-22T16:15:10.849Z,63.70
2018-06-22T16:17:46.434Z,63.40
2018-06-22T16:20:22.089Z,63.90
2018-06-22T16:22:57.560Z,64.50
2018-06-22T16:25:33.333Z,64.00
2018-06-22T16:28:04.904Z,65.10
2018-06-22T16:30:35.486Z,63.30
2018-06-22T16:33:05.957Z,62.90
2018-06-22T16:35:36.550Z,62.50
2018-06-22T16:38:07.114Z,62.90
2018-06-22T16:40:37.715Z,63.00
2018-06-22T16:43:08.300Z,63.90
2018-06-22T16:45:38.840Z,65.00
2018-06-22T16:48:09.576Z,65.60
2018-06-22T16:50:40.052Z,66.30
2018-06-22T16:53:10.611Z,65.40
2018-06-22T16:55:41.057Z,65.90
2018-06-22T16:58:16.703Z,65.50
2018-06-22T17:00:47.197Z,66.10
2018-06-22T17:03:17.604Z,66.80
2018-06-22T17:05:48.036Z,67.00
2018-06-22T17:08:23.708Z,66.70
2018-06-22T17:10:59.202Z,66.80
2018-06-22T17:13:35.456Z,67.50
2018-06-22T17:16:11.386Z,66.90
2018-06-22T17:18:47.081Z,67.10
2018-06-22T17:21:17.519Z,67.10
2018-06-22T17:23:48.265Z,66.70
2018-06-22T17:26:20.355Z,67.50
2018-06-22T17:28:50.939Z,67.40
2018-06-22T17:31:21.481Z,67.20
2018-06-22T17:33:52.015Z,67.30
2018-06-22T17:36:23.590Z,66.80
2018-06-22T17:38:54.078Z,67.00
2018-06-22T17:41:24.533Z,67.30
2018-06-22T17:43:54.969Z,66.90
2018-06-22T17:46:25.670Z,66.60
2018-06-22T17:48:56.480Z,66.40
2018-06-22T17:51:27.014Z,66.20
2018-06-22T17:53:58.667Z,66.20
2018-06-22T17:56:30.931Z,66.30
2018-06-22T17:59:06.994Z,65.60
2018-06-22T18:01:42.533Z,66.40
2018-06-22T18:04:18.303Z,65.20
2018-06-22T18:06:54.420Z,65.00
2018-06-22T18:09:30.327Z,64.50
2018-06-22T18:12:06.195Z,64.80
2018-06-22T18:14:36.688Z,65.40
2018-06-22T18:17:07.077Z,64.70
2018-06-22T18:19:37.579Z,65.50
2018-06-22T18:22:08.890Z,65.10
2018-06-22T18:27:09.765Z,65.60
2018-06-22T18:29:40.465Z,65.60
2018-06-22T18:32:10.994Z,66.60
2018-06-22T18:34:41.562Z,66.30
2018-06-22T18:37:12.828Z,67.10
2018-06-22T18:39:43.413Z,66.80
2018-06-22T18:42:14.041Z,66.80
2018-06-22T18:44:44.632Z,67.20
2018-06-22T18:47:19.950Z,66.20
2018-06-22T18:49:50.886Z,66.00
2018-06-22T18:52:27.052Z,66.60
2018-06-22T18:55:03.852Z,66.90
2018-06-22T19:00:52.397Z,67.10
2018-06-22T19:03:29.808Z,67.10
2018-06-22T19:06:00.324Z,67.90
2018-06-22T19:08:30.791Z,68.10
2018-06-22T19:11:01.279Z,68.20
2018-06-22T19:13:31.701Z,68.20
2018-06-22T19:16:02.221Z,68.30
2018-06-22T19:18:33.072Z,68.50
2018-06-22T19:21:03.646Z,68.40
2018-06-22T19:23:34.549Z,68.20
2018-06-22T19:26:05.567Z,68.50
2018-06-22T19:28:36.087Z,68.90
2018-06-22T19:31:07.464Z,69.00
2018-06-22T19:33:38.032Z,69.00
2018-06-22T19:36:08.520Z,70.00
2018-06-22T19:38:39.233Z,69.30
2018-06-22T19:41:09.812Z,69.10
2018-06-22T19:43:45.330Z,69.30
2018-06-22T19:46:20.865Z,69.10
2018-06-22T19:48:56.378Z,69.30
2018-06-22T19:51:31.918Z,69.10
2018-06-22T19:54:06.052Z,69.20
2018-06-22T19:56:36.764Z,70.70
2018-06-22T19:59:07.263Z,71.70
2018-06-22T20:01:38.235Z,71.20
2018-06-22T20:04:08.938Z,70.40
2018-06-22T20:06:39.334Z,72.50
2018-06-22T20:09:11.331Z,73.60
2018-06-22T20:11:42.008Z,73.50
2018-06-22T20:14:13.277Z,73.90
2018-06-22T20:16:44.049Z,74.00
2018-06-22T20:19:14.675Z,74.40
2018-06-22T20:21:45.190Z,74.50
2018-06-22T20:24:19.734Z,75.50
2018-06-22T20:26:50.272Z,76.30
2018-06-22T20:29:21.642Z,76.70
2018-06-22T20:31:52.135Z,76.70
2018-06-22T20:34:28.085Z,76.80
2018-06-22T20:37:03.629Z,76.90
2018-06-22T20:39:40.209Z,77.10
2018-06-22T20:42:16.036Z,77.30
2018-06-22T20:44:52.139Z,77.00
2018-06-22T20:47:27.757Z,76.70
2018-06-22T20:50:03.402Z,76.80
2018-06-22T20:52:34.571Z,77.20
2018-06-22T20:55:05.577Z,76.90
2018-06-22T20:57:36.772Z,77.00
2018-06-22T21:00:08.570Z,77.90
2018-06-22T21:02:39.985Z,77.90
2018-06-22T21:05:11.682Z,76.80
2018-06-22T21:07:42.822Z,77.00
2018-06-22T21:10:13.411Z,77.30
2018-06-22T21:12:44.222Z,77.40
2018-06-22T21:15:14.911Z,77.40
2018-06-22T21:17:45.511Z,76.60
2018-06-22T21:20:15.981Z,76.30
2018-06-22T21:22:46.557Z,77.50
2018-06-22T21:25:17.293Z,78.60
2018-06-22T21:27:53.003Z,78.90
2018-06-22T21:30:28.577Z,78.70
2018-06-22T21:33:05.511Z,77.70
2018-06-22T21:35:42.339Z,77.00
2018-06-22T21:38:18.781Z,77.20
2018-06-22T21:40:50.894Z,77.60
2018-06-22T21:43:21.896Z,77.90
2018-06-22T21:45:52.734Z,77.80
2018-06-22T21:48:23.183Z,78.00
2018-06-22T21:50:53.655Z,78.30
2018-06-22T21:53:24.134Z,78.60
2018-06-22T21:55:54.626Z,78.70
2018-06-22T21:58:25.127Z,80.40
2018-06-22T22:00:55.631Z,81.20
2018-06-22T22:03:26.076Z,81.20
2018-06-22T22:05:56.560Z,80.80
2018-06-22T22:08:27.015Z,80.70
2018-06-22T22:11:02.713Z,79.80
2018-06-22T22:13:33.158Z,82.20
2018-06-22T22:16:03.656Z,82.00
2018-06-22T22:18:34.275Z,82.10
2018-06-22T22:21:04.983Z,82.50
2018-06-22T22:23:36.517Z,83.70
2018-06-22T22:26:07.215Z,82.90
2018-06-22T22:28:38.214Z,83.70
2018-06-22T22:31:08.694Z,84.00
2018-06-22T22:33:39.957Z,84.20
2018-06-22T22:36:10.438Z,84.00
2018-06-22T22:38:40.858Z,84.70
2018-06-22T22:41:12.023Z,84.80
2018-06-22T22:43:42.406Z,85.90
2018-06-22T22:46:12.868Z,86.10
2018-06-22T22:48:43.428Z,86.10
2018-06-22T22:51:14.002Z,86.30
2018-06-22T22:53:44.557Z,86.80
2018-06-22T22:56:15.032Z,86.80
2018-06-22T22:58:45.412Z,87.00
2018-06-22T23:01:15.875Z,87.20
2018-06-22T23:03:46.408Z,87.40
2018-06-22T23:06:16.906Z,87.00
2018-06-22T23:08:47.387Z,86.00
2018-06-22T23:11:17.851Z,87.40
2018-06-22T23:13:48.693Z,86.90
2018-06-22T23:16:19.299Z,86.40
2018-06-22T23:18:49.712Z,86.20
2018-06-22T23:21:20.211Z,86.50
2018-06-22T23:23:50.615Z,86.70
2018-06-22T23:26:21.688Z,86.40
2018-06-22T23:28:52.219Z,86.30
2018-06-22T23:31:22.758Z,87.10
2018-06-22T23:33:53.197Z,87.30
2018-06-22T23:36:23.971Z,87.30
2018-06-22T23:38:54.613Z,87.40
2018-06-22T23:41:26.222Z,87.30
2018-06-22T23:43:56.811Z,87.30
2018-06-22T23:46:27.363Z,87.40
2018-06-22T23:48:58.204Z,87.60
2018-06-22T23:51:29.401Z,88.30
2018-06-22T23:53:59.917Z,88.50
2018-06-22T23:56:31.127Z,88.60
2018-06-22T23:59:01.683Z,89.20
